sensor_id;sensor_type;location;lat;lon;timestamp;P1;durP1;ratioP1;P2;durP2;ratioP2
53652;SDS011;39553;52.954;5.932;2022-09-09T00:04:35;33.30;;;14.98;;
53652;SDS011;39553;52.954;5.932;2022-09-09T00:07:21;21.10;;;12.00;;
53652;SDS011;39553;52.954;5.932;2022-09-09T00:10:13;24.10;;;12.65;;
53652;SDS011;39553;52.954;5.932;2022-09-09T00:15:20;28.02;;;14.23;;
53652;SDS011;39553;52.954;5.932;2022-09-09T00:23:50;21.75;;;13.27;;
53652;SDS011;39553;52.954;5.932;2022-09-09T00:29:10;19.73;;;11.55;;
53652;SDS011;39553;52.954;5.932;2022-09-09T00:31:52;18.08;;;11.23;;
53652;SDS011;39553;52.954;5.932;2022-09-09T00:34:23;24.25;;;12.77;;
53652;SDS011;39553;52.954;5.932;2022-09-09T00:36:52;20.08;;;11.82;;
53652;SDS011;39553;52.954;5.932;2022-09-09T00:44:34;24.33;;;12.85;;
53652;SDS011;39553;52.954;5.932;2022-09-09T00:58:22;21.15;;;11.45;;
53652;SDS011;39553;52.954;5.932;2022-09-09T01:06:20;23.50;;;11.93;;
53652;SDS011;39553;52.954;5.932;2022-09-09T01:14:47;16.92;;;11.93;;
53652;SDS011;39553;52.954;5.932;2022-09-09T01:20:02;24.70;;;11.52;;
53652;SDS011;39553;52.954;5.932;2022-09-09T01:27:45;17.67;;;10.48;;
53652;SDS011;39553;52.954;5.932;2022-09-09T01:30:15;22.90;;;11.45;;
53652;SDS011;39553;52.954;5.932;2022-09-09T01:32:44;17.50;;;11.35;;
53652;SDS011;39553;52.954;5.932;2022-09-09T01:35:21;19.23;;;11.15;;
53652;SDS011;39553;52.954;5.932;2022-09-09T01:38:08;20.40;;;11.63;;
53652;SDS011;39553;52.954;5.932;2022-09-09T01:40:34;16.92;;;10.57;;
53652;SDS011;39553;52.954;5.932;2022-09-09T01:43:00;18.42;;;11.98;;
53652;SDS011;39553;52.954;5.932;2022-09-09T01:45:26;18.58;;;10.90;;
53652;SDS011;39553;52.954;5.932;2022-09-09T01:47:52;22.23;;;11.90;;
53652;SDS011;39553;52.954;5.932;2022-09-09T01:50:18;19.70;;;11.05;;
53652;SDS011;39553;52.954;5.932;2022-09-09T01:52:45;18.23;;;11.13;;
53652;SDS011;39553;52.954;5.932;2022-09-09T01:55:15;17.63;;;10.98;;
53652;SDS011;39553;52.954;5.932;2022-09-09T02:00:36;17.27;;;11.23;;
53652;SDS011;39553;52.954;5.932;2022-09-09T02:03:28;18.43;;;10.87;;
53652;SDS011;39553;52.954;5.932;2022-09-09T02:06:00;21.27;;;11.15;;
53652;SDS011;39553;52.954;5.932;2022-09-09T02:08:48;22.50;;;11.25;;
53652;SDS011;39553;52.954;5.932;2022-09-09T02:11:16;27.80;;;10.88;;
53652;SDS011;39553;52.954;5.932;2022-09-09T02:13:47;20.05;;;11.18;;
53652;SDS011;39553;52.954;5.932;2022-09-09T02:21:49;17.02;;;10.77;;
53652;SDS011;39553;52.954;5.932;2022-09-09T02:24:16;20.10;;;10.38;;
53652;SDS011;39553;52.954;5.932;2022-09-09T02:26:44;17.98;;;11.00;;
53652;SDS011;39553;52.954;5.932;2022-09-09T02:29:14;20.95;;;10.48;;
53652;SDS011;39553;52.954;5.932;2022-09-09T02:31:43;21.23;;;11.20;;
53652;SDS011;39553;52.954;5.932;2022-09-09T02:34:12;22.17;;;10.60;;
53652;SDS011;39553;52.954;5.932;2022-09-09T02:36:41;20.00;;;10.73;;
53652;SDS011;39553;52.954;5.932;2022-09-09T02:39:11;18.88;;;11.60;;
53652;SDS011;39553;52.954;5.932;2022-09-09T02:41:38;17.50;;;10.63;;
53652;SDS011;39553;52.954;5.932;2022-09-09T02:44:09;16.70;;;10.18;;
53652;SDS011;39553;52.954;5.932;2022-09-09T02:52:00;21.38;;;12.73;;
53652;SDS011;39553;52.954;5.932;2022-09-09T02:54:35;21.08;;;10.73;;
53652;SDS011;39553;52.954;5.932;2022-09-09T02:57:21;23.08;;;11.57;;
53652;SDS011;39553;52.954;5.932;2022-09-09T02:59:50;16.02;;;10.95;;
53652;SDS011;39553;52.954;5.932;2022-09-09T03:02:17;19.80;;;12.15;;
53652;SDS011;39553;52.954;5.932;2022-09-09T03:04:43;17.92;;;10.52;;
53652;SDS011;39553;52.954;5.932;2022-09-09T03:07:12;25.17;;;11.98;;
53652;SDS011;39553;52.954;5.932;2022-09-09T03:09:38;17.45;;;9.73;;
53652;SDS011;39553;52.954;5.932;2022-09-09T03:12:04;21.23;;;10.93;;
53652;SDS011;39553;52.954;5.932;2022-09-09T03:14:29;16.13;;;9.43;;
53652;SDS011;39553;52.954;5.932;2022-09-09T03:16:56;15.57;;;9.50;;
53652;SDS011;39553;52.954;5.932;2022-09-09T03:19:25;16.70;;;9.77;;
53652;SDS011;39553;52.954;5.932;2022-09-09T03:21:52;14.43;;;7.45;;
53652;SDS011;39553;52.954;5.932;2022-09-09T03:24:18;16.17;;;8.32;;
53652;SDS011;39553;52.954;5.932;2022-09-09T03:26:45;11.27;;;6.78;;
53652;SDS011;39553;52.954;5.932;2022-09-09T03:29:14;12.43;;;6.43;;
53652;SDS011;39553;52.954;5.932;2022-09-09T03:31:39;14.43;;;7.07;;
53652;SDS011;39553;52.954;5.932;2022-09-09T03:34:06;11.43;;;5.82;;
53652;SDS011;39553;52.954;5.932;2022-09-09T03:36:32;16.58;;;6.90;;
53652;SDS011;39553;52.954;5.932;2022-09-09T03:38:58;12.40;;;6.50;;
53652;SDS011;39553;52.954;5.932;2022-09-09T03:41:25;13.25;;;6.68;;
53652;SDS011;39553;52.954;5.932;2022-09-09T03:43:51;9.05;;;5.80;;
53652;SDS011;39553;52.954;5.932;2022-09-09T03:46:18;12.25;;;6.22;;
53652;SDS011;39553;52.954;5.932;2022-09-09T03:48:45;11.65;;;6.15;;
53652;SDS011;39553;52.954;5.932;2022-09-09T03:51:11;13.02;;;5.85;;
53652;SDS011;39553;52.954;5.932;2022-09-09T03:53:37;8.45;;;5.57;;
53652;SDS011;39553;52.954;5.932;2022-09-09T03:56:03;9.70;;;5.90;;
53652;SDS011;39553;52.954;5.932;2022-09-09T03:58:32;14.02;;;5.85;;
53652;SDS011;39553;52.954;5.932;2022-09-09T04:03:25;11.00;;;6.20;;
53652;SDS011;39553;52.954;5.932;2022-09-09T04:05:52;12.98;;;6.10;;
53652;SDS011;39553;52.954;5.932;2022-09-09T04:08:18;13.07;;;6.82;;
53652;SDS011;39553;52.954;5.932;2022-09-09T04:10:46;18.05;;;6.75;;
53652;SDS011;39553;52.954;5.932;2022-09-09T04:13:13;14.52;;;6.88;;
53652;SDS011;39553;52.954;5.932;2022-09-09T04:15:41;11.32;;;7.07;;
53652;SDS011;39553;52.954;5.932;2022-09-09T04:18:08;15.88;;;7.45;;
53652;SDS011;39553;52.954;5.932;2022-09-09T04:20:34;10.13;;;7.10;;
53652;SDS011;39553;52.954;5.932;2022-09-09T04:23:00;17.25;;;7.90;;
53652;SDS011;39553;52.954;5.932;2022-09-09T04:25:26;13.45;;;8.18;;
53652;SDS011;39553;52.954;5.932;2022-09-09T04:27:55;16.67;;;8.55;;
53652;SDS011;39553;52.954;5.932;2022-09-09T04:30:22;14.82;;;8.80;;
53652;SDS011;39553;52.954;5.932;2022-09-09T04:32:48;13.45;;;8.73;;
53652;SDS011;39553;52.954;5.932;2022-09-09T04:35:14;19.13;;;8.77;;
53652;SDS011;39553;52.954;5.932;2022-09-09T04:37:39;13.95;;;8.60;;
53652;SDS011;39553;52.954;5.932;2022-09-09T04:40:06;16.83;;;8.75;;
53652;SDS011;39553;52.954;5.932;2022-09-09T04:42:38;15.55;;;8.82;;
53652;SDS011;39553;52.954;5.932;2022-09-09T04:45:07;17.65;;;9.48;;
53652;SDS011;39553;52.954;5.932;2022-09-09T04:47:36;11.55;;;7.97;;
53652;SDS011;39553;52.954;5.932;2022-09-09T04:50:02;15.18;;;8.73;;
53652;SDS011;39553;52.954;5.932;2022-09-09T04:52:28;19.63;;;8.23;;
53652;SDS011;39553;52.954;5.932;2022-09-09T04:54:53;21.80;;;8.85;;
53652;SDS011;39553;52.954;5.932;2022-09-09T04:57:19;14.32;;;9.00;;
53652;SDS011;39553;52.954;5.932;2022-09-09T04:59:45;16.25;;;9.07;;
53652;SDS011;39553;52.954;5.932;2022-09-09T05:02:11;20.90;;;9.40;;
53652;SDS011;39553;52.954;5.932;2022-09-09T05:04:36;17.45;;;9.65;;
53652;SDS011;39553;52.954;5.932;2022-09-09T05:07:02;26.13;;;10.20;;
53652;SDS011;39553;52.954;5.932;2022-09-09T05:09:28;21.60;;;10.50;;
53652;SDS011;39553;52.954;5.932;2022-09-09T05:11:55;16.88;;;10.15;;
53652;SDS011;39553;52.954;5.932;2022-09-09T05:14:21;16.70;;;10.65;;
53652;SDS011;39553;52.954;5.932;2022-09-09T05:16:47;19.75;;;12.02;;
53652;SDS011;39553;52.954;5.932;2022-09-09T05:19:14;28.92;;;11.65;;
53652;SDS011;39553;52.954;5.932;2022-09-09T05:21:40;21.02;;;12.18;;
53652;SDS011;39553;52.954;5.932;2022-09-09T05:24:06;17.80;;;10.75;;
53652;SDS011;39553;52.954;5.932;2022-09-09T05:26:32;18.08;;;11.23;;
53652;SDS011;39553;52.954;5.932;2022-09-09T05:28:58;24.73;;;12.40;;
53652;SDS011;39553;52.954;5.932;2022-09-09T05:31:25;23.98;;;11.48;;
53652;SDS011;39553;52.954;5.932;2022-09-09T05:33:53;21.48;;;12.23;;
53652;SDS011;39553;52.954;5.932;2022-09-09T05:36:20;27.17;;;13.85;;
53652;SDS011;39553;52.954;5.932;2022-09-09T05:38:47;21.13;;;13.25;;
53652;SDS011;39553;52.954;5.932;2022-09-09T05:41:13;20.77;;;12.38;;
53652;SDS011;39553;52.954;5.932;2022-09-09T05:43:40;23.90;;;13.57;;
53652;SDS011;39553;52.954;5.932;2022-09-09T05:46:15;28.85;;;13.65;;
53652;SDS011;39553;52.954;5.932;2022-09-09T05:48:45;26.67;;;13.10;;
53652;SDS011;39553;52.954;5.932;2022-09-09T05:51:12;22.70;;;12.57;;
53652;SDS011;39553;52.954;5.932;2022-09-09T05:53:43;27.73;;;13.27;;
53652;SDS011;39553;52.954;5.932;2022-09-09T05:56:16;24.92;;;14.30;;
53652;SDS011;39553;52.954;5.932;2022-09-09T05:58:44;25.25;;;13.68;;
53652;SDS011;39553;52.954;5.932;2022-09-09T06:01:16;23.25;;;12.60;;
53652;SDS011;39553;52.954;5.932;2022-09-09T06:03:44;18.83;;;11.68;;
53652;SDS011;39553;52.954;5.932;2022-09-09T06:06:11;22.23;;;12.60;;
53652;SDS011;39553;52.954;5.932;2022-09-09T06:08:40;24.25;;;12.25;;
53652;SDS011;39553;52.954;5.932;2022-09-09T06:11:13;21.50;;;11.70;;
53652;SDS011;39553;52.954;5.932;2022-09-09T06:13:40;23.45;;;11.60;;
53652;SDS011;39553;52.954;5.932;2022-09-09T06:16:10;20.13;;;12.10;;
53652;SDS011;39553;52.954;5.932;2022-09-09T06:18:43;22.65;;;11.98;;
53652;SDS011;39553;52.954;5.932;2022-09-09T06:21:11;24.70;;;12.00;;
53652;SDS011;39553;52.954;5.932;2022-09-09T06:23:41;22.17;;;11.63;;
53652;SDS011;39553;52.954;5.932;2022-09-09T06:26:26;25.77;;;12.05;;
53652;SDS011;39553;52.954;5.932;2022-09-09T06:28:54;21.58;;;11.07;;
53652;SDS011;39553;52.954;5.932;2022-09-09T06:31:22;17.95;;;11.23;;
53652;SDS011;39553;52.954;5.932;2022-09-09T06:33:50;23.75;;;11.45;;
53652;SDS011;39553;52.954;5.932;2022-09-09T06:36:18;22.20;;;11.57;;
53652;SDS011;39553;52.954;5.932;2022-09-09T06:38:45;17.95;;;10.38;;
53652;SDS011;39553;52.954;5.932;2022-09-09T06:41:12;22.73;;;12.35;;
53652;SDS011;39553;52.954;5.932;2022-09-09T06:43:39;18.42;;;10.85;;
53652;SDS011;39553;52.954;5.932;2022-09-09T06:46:06;18.60;;;10.85;;
53652;SDS011;39553;52.954;5.932;2022-09-09T06:48:33;17.83;;;10.25;;
53652;SDS011;39553;52.954;5.932;2022-09-09T06:51:03;18.88;;;10.45;;
53652;SDS011;39553;52.954;5.932;2022-09-09T06:53:31;16.58;;;10.27;;
53652;SDS011;39553;52.954;5.932;2022-09-09T06:56:01;18.23;;;10.00;;
53652;SDS011;39553;52.954;5.932;2022-09-09T06:58:48;17.88;;;11.23;;
53652;SDS011;39553;52.954;5.932;2022-09-09T07:01:21;14.40;;;9.32;;
53652;SDS011;39553;52.954;5.932;2022-09-09T07:03:52;14.00;;;9.05;;
53652;SDS011;39553;52.954;5.932;2022-09-09T07:06:20;16.25;;;9.02;;
53652;SDS011;39553;52.954;5.932;2022-09-09T07:08:49;17.10;;;9.68;;
53652;SDS011;39553;52.954;5.932;2022-09-09T07:11:19;14.40;;;9.15;;
53652;SDS011;39553;52.954;5.932;2022-09-09T07:13:46;15.57;;;9.30;;
53652;SDS011;39553;52.954;5.932;2022-09-09T07:16:15;15.90;;;8.10;;
53652;SDS011;39553;52.954;5.932;2022-09-09T07:18:42;14.43;;;8.55;;
53652;SDS011;39553;52.954;5.932;2022-09-09T07:21:12;14.20;;;8.70;;
53652;SDS011;39553;52.954;5.932;2022-09-09T07:23:39;14.13;;;9.10;;
53652;SDS011;39553;52.954;5.932;2022-09-09T07:26:09;14.32;;;7.85;;
53652;SDS011;39553;52.954;5.932;2022-09-09T07:28:36;16.42;;;8.63;;
53652;SDS011;39553;52.954;5.932;2022-09-09T07:31:03;14.02;;;8.15;;
53652;SDS011;39553;52.954;5.932;2022-09-09T07:33:30;14.93;;;8.30;;
53652;SDS011;39553;52.954;5.932;2022-09-09T07:36:02;18.65;;;8.98;;
53652;SDS011;39553;52.954;5.932;2022-09-09T07:38:39;18.15;;;9.63;;
53652;SDS011;39553;52.954;5.932;2022-09-09T07:41:08;14.80;;;8.48;;
53652;SDS011;39553;52.954;5.932;2022-09-09T07:43:39;12.95;;;8.70;;
53652;SDS011;39553;52.954;5.932;2022-09-09T07:46:10;21.10;;;8.80;;
53652;SDS011;39553;52.954;5.932;2022-09-09T07:48:37;12.32;;;7.45;;
53652;SDS011;39553;52.954;5.932;2022-09-09T07:51:08;12.70;;;7.75;;
53652;SDS011;39553;52.954;5.932;2022-09-09T07:53:36;18.40;;;8.95;;
53652;SDS011;39553;52.954;5.932;2022-09-09T07:56:10;15.70;;;7.32;;
53652;SDS011;39553;52.954;5.932;2022-09-09T07:58:38;9.88;;;7.10;;
53652;SDS011;39553;52.954;5.932;2022-09-09T08:01:16;16.58;;;7.53;;
53652;SDS011;39553;52.954;5.932;2022-09-09T08:03:44;12.13;;;5.45;;
53652;SDS011;39553;52.954;5.932;2022-09-09T08:06:11;9.80;;;5.53;;
53652;SDS011;39553;52.954;5.932;2022-09-09T08:08:39;10.82;;;5.55;;
53652;SDS011;39553;52.954;5.932;2022-09-09T08:11:09;11.48;;;4.60;;
53652;SDS011;39553;52.954;5.932;2022-09-09T08:13:37;11.57;;;5.50;;
53652;SDS011;39553;52.954;5.932;2022-09-09T08:16:05;9.57;;;4.90;;
53652;SDS011;39553;52.954;5.932;2022-09-09T08:18:38;10.15;;;5.05;;
53652;SDS011;39553;52.954;5.932;2022-09-09T08:21:12;7.28;;;4.70;;
53652;SDS011;39553;52.954;5.932;2022-09-09T08:23:42;13.50;;;5.20;;
53652;SDS011;39553;52.954;5.932;2022-09-09T08:26:17;6.35;;;4.10;;
53652;SDS011;39553;52.954;5.932;2022-09-09T08:28:47;8.15;;;4.85;;
53652;SDS011;39553;52.954;5.932;2022-09-09T08:31:39;6.80;;;4.00;;
53652;SDS011;39553;52.954;5.932;2022-09-09T08:34:05;16.02;;;5.10;;
53652;SDS011;39553;52.954;5.932;2022-09-09T08:36:36;12.07;;;5.40;;
53652;SDS011;39553;52.954;5.932;2022-09-09T08:39:07;10.02;;;4.40;;
53652;SDS011;39553;52.954;5.932;2022-09-09T08:47:11;7.80;;;4.07;;
53652;SDS011;39553;52.954;5.932;2022-09-09T08:52:53;10.40;;;4.60;;
53652;SDS011;39553;52.954;5.932;2022-09-09T08:57:56;7.63;;;3.85;;
53652;SDS011;39553;52.954;5.932;2022-09-09T09:00:25;8.70;;;3.60;;
53652;SDS011;39553;52.954;5.932;2022-09-09T09:11:40;12.20;;;3.97;;
53652;SDS011;39553;52.954;5.932;2022-09-09T09:14:22;10.95;;;4.03;;
53652;SDS011;39553;52.954;5.932;2022-09-09T09:16:53;8.18;;;3.72;;
53652;SDS011;39553;52.954;5.932;2022-09-09T09:19:23;13.27;;;3.80;;
53652;SDS011;39553;52.954;5.932;2022-09-09T09:27:32;8.27;;;3.25;;
53652;SDS011;39553;52.954;5.932;2022-09-09T09:30:22;8.88;;;2.92;;
53652;SDS011;39553;52.954;5.932;2022-09-09T09:33:00;13.35;;;3.70;;
53652;SDS011;39553;52.954;5.932;2022-09-09T09:35:26;8.75;;;3.05;;
53652;SDS011;39553;52.954;5.932;2022-09-09T09:37:52;6.75;;;2.97;;
53652;SDS011;39553;52.954;5.932;2022-09-09T09:40:19;6.63;;;2.47;;
53652;SDS011;39553;52.954;5.932;2022-09-09T09:42:53;6.57;;;3.03;;
53652;SDS011;39553;52.954;5.932;2022-09-09T09:48:11;5.88;;;2.28;;
53652;SDS011;39553;52.954;5.932;2022-09-09T09:55:56;6.97;;;2.30;;
53652;SDS011;39553;52.954;5.932;2022-09-09T09:58:32;9.27;;;2.55;;
53652;SDS011;39553;52.954;5.932;2022-09-09T10:01:28;7.53;;;3.42;;
53652;SDS011;39553;52.954;5.932;2022-09-09T10:04:00;8.15;;;2.78;;
53652;SDS011;39553;52.954;5.932;2022-09-09T10:06:38;4.57;;;2.45;;
53652;SDS011;39553;52.954;5.932;2022-09-09T10:12:45;8.98;;;3.22;;
53652;SDS011;39553;52.954;5.932;2022-09-09T10:15:07;7.97;;;2.20;;
53652;SDS011;39553;52.954;5.932;2022-09-09T10:33:58;8.23;;;2.60;;
53652;SDS011;39553;52.954;5.932;2022-09-09T10:36:49;6.78;;;2.50;;
53652;SDS011;39553;52.954;5.932;2022-09-09T10:53:28;6.68;;;2.25;;
53652;SDS011;39553;52.954;5.932;2022-09-09T10:56:10;5.18;;;2.00;;
53652;SDS011;39553;52.954;5.932;2022-09-09T11:01:20;7.93;;;2.20;;
53652;SDS011;39553;52.954;5.932;2022-09-09T11:03:54;5.00;;;2.17;;
53652;SDS011;39553;52.954;5.932;2022-09-09T11:06:30;11.30;;;1.80;;
53652;SDS011;39553;52.954;5.932;2022-09-09T11:09:01;12.50;;;2.72;;
53652;SDS011;39553;52.954;5.932;2022-09-09T11:11:37;4.60;;;1.70;;
53652;SDS011;39553;52.954;5.932;2022-09-09T11:17:22;7.68;;;3.38;;
53652;SDS011;39553;52.954;5.932;2022-09-09T11:19:52;5.70;;;2.50;;
53652;SDS011;39553;52.954;5.932;2022-09-09T11:22:35;6.75;;;2.55;;
53652;SDS011;39553;52.954;5.932;2022-09-09T11:40:07;8.02;;;2.53;;
53652;SDS011;39553;52.954;5.932;2022-09-09T11:43:03;8.40;;;2.22;;
53652;SDS011;39553;52.954;5.932;2022-09-09T11:48:03;7.63;;;2.05;;
53652;SDS011;39553;52.954;5.932;2022-09-09T11:50:34;5.68;;;1.90;;
53652;SDS011;39553;52.954;5.932;2022-09-09T11:53:20;6.03;;;1.83;;
53652;SDS011;39553;52.954;5.932;2022-09-09T11:55:48;7.78;;;2.38;;
53652;SDS011;39553;52.954;5.932;2022-09-09T11:58:26;5.70;;;2.08;;
53652;SDS011;39553;52.954;5.932;2022-09-09T12:00:57;7.30;;;2.72;;
53652;SDS011;39553;52.954;5.932;2022-09-09T12:06:18;9.20;;;2.53;;
53652;SDS011;39553;52.954;5.932;2022-09-09T12:08:51;11.32;;;2.38;;
53652;SDS011;39553;52.954;5.932;2022-09-09T12:11:29;5.85;;;2.25;;
53652;SDS011;39553;52.954;5.932;2022-09-09T12:13:56;8.40;;;2.33;;
53652;SDS011;39553;52.954;5.932;2022-09-09T12:16:28;6.68;;;1.85;;
53652;SDS011;39553;52.954;5.932;2022-09-09T12:21:44;7.18;;;3.03;;
53652;SDS011;39553;52.954;5.932;2022-09-09T12:30:10;9.68;;;2.20;;
53652;SDS011;39553;52.954;5.932;2022-09-09T12:32:40;4.93;;;1.58;;
53652;SDS011;39553;52.954;5.932;2022-09-09T12:35:39;5.78;;;2.08;;
53652;SDS011;39553;52.954;5.932;2022-09-09T12:37:58;7.63;;;2.08;;
53652;SDS011;39553;52.954;5.932;2022-09-09T12:40:31;4.25;;;1.48;;
53652;SDS011;39553;52.954;5.932;2022-09-09T12:43:00;5.93;;;1.83;;
53652;SDS011;39553;52.954;5.932;2022-09-09T12:45:31;5.88;;;2.22;;
53652;SDS011;39553;52.954;5.932;2022-09-09T12:48:10;6.05;;;1.83;;
53652;SDS011;39553;52.954;5.932;2022-09-09T12:50:44;6.10;;;2.42;;
53652;SDS011;39553;52.954;5.932;2022-09-09T12:53:21;4.25;;;1.60;;
53652;SDS011;39553;52.954;5.932;2022-09-09T12:55:58;5.05;;;2.03;;
53652;SDS011;39553;52.954;5.932;2022-09-09T12:58:27;3.38;;;1.60;;
53652;SDS011;39553;52.954;5.932;2022-09-09T13:00:58;5.90;;;2.17;;
53652;SDS011;39553;52.954;5.932;2022-09-09T13:03:25;6.80;;;2.08;;
53652;SDS011;39553;52.954;5.932;2022-09-09T13:05:52;5.00;;;1.42;;
53652;SDS011;39553;52.954;5.932;2022-09-09T13:08:19;4.50;;;2.15;;
53652;SDS011;39553;52.954;5.932;2022-09-09T13:10:59;7.10;;;2.13;;
53652;SDS011;39553;52.954;5.932;2022-09-09T13:16:00;3.20;;;2.17;;
53652;SDS011;39553;52.954;5.932;2022-09-09T13:18:29;6.13;;;2.72;;
53652;SDS011;39553;52.954;5.932;2022-09-09T13:20:58;7.70;;;3.20;;
53652;SDS011;39553;52.954;5.932;2022-09-09T13:23:29;9.18;;;3.50;;
53652;SDS011;39553;52.954;5.932;2022-09-09T13:26:05;6.07;;;2.05;;
53652;SDS011;39553;52.954;5.932;2022-09-09T13:28:46;6.60;;;2.40;;
53652;SDS011;39553;52.954;5.932;2022-09-09T13:31:20;4.68;;;2.58;;
53652;SDS011;39553;52.954;5.932;2022-09-09T13:33:52;5.32;;;2.45;;
53652;SDS011;39553;52.954;5.932;2022-09-09T13:36:27;5.40;;;1.98;;
53652;SDS011;39553;52.954;5.932;2022-09-09T13:38:58;5.32;;;2.28;;
53652;SDS011;39553;52.954;5.932;2022-09-09T13:43:55;5.72;;;1.90;;
53652;SDS011;39553;52.954;5.932;2022-09-09T13:46:32;3.40;;;1.70;;
53652;SDS011;39553;52.954;5.932;2022-09-09T13:51:36;3.75;;;1.77;;
53652;SDS011;39553;52.954;5.932;2022-09-09T13:54:05;3.22;;;1.77;;
53652;SDS011;39553;52.954;5.932;2022-09-09T13:56:35;4.55;;;1.85;;
53652;SDS011;39553;52.954;5.932;2022-09-09T13:59:03;5.82;;;1.90;;
53652;SDS011;39553;52.954;5.932;2022-09-09T14:01:30;6.00;;;1.60;;
53652;SDS011;39553;52.954;5.932;2022-09-09T14:03:56;6.32;;;2.03;;
53652;SDS011;39553;52.954;5.932;2022-09-09T14:06:22;1.83;;;1.60;;
53652;SDS011;39553;52.954;5.932;2022-09-09T14:08:49;4.13;;;1.70;;
53652;SDS011;39553;52.954;5.932;2022-09-09T14:11:15;3.33;;;1.60;;
53652;SDS011;39553;52.954;5.932;2022-09-09T14:13:42;3.03;;;1.73;;
53652;SDS011;39553;52.954;5.932;2022-09-09T14:16:08;3.38;;;2.08;;
53652;SDS011;39553;52.954;5.932;2022-09-09T14:18:34;5.72;;;1.65;;
53652;SDS011;39553;52.954;5.932;2022-09-09T14:21:00;6.28;;;2.05;;
53652;SDS011;39553;52.954;5.932;2022-09-09T14:23:27;8.23;;;1.73;;
53652;SDS011;39553;52.954;5.932;2022-09-09T14:25:54;5.53;;;1.70;;
53652;SDS011;39553;52.954;5.932;2022-09-09T14:28:20;3.80;;;1.77;;
53652;SDS011;39553;52.954;5.932;2022-09-09T14:30:45;4.90;;;2.00;;
53652;SDS011;39553;52.954;5.932;2022-09-09T14:33:12;5.50;;;1.50;;
53652;SDS011;39553;52.954;5.932;2022-09-09T14:35:39;7.20;;;1.83;;
53652;SDS011;39553;52.954;5.932;2022-09-09T14:38:06;4.30;;;1.67;;
53652;SDS011;39553;52.954;5.932;2022-09-09T14:40:36;2.15;;;1.60;;
53652;SDS011;39553;52.954;5.932;2022-09-09T14:43:03;3.25;;;2.13;;
53652;SDS011;39553;52.954;5.932;2022-09-09T14:45:30;4.90;;;2.05;;
53652;SDS011;39553;52.954;5.932;2022-09-09T14:47:57;3.65;;;2.10;;
53652;SDS011;39553;52.954;5.932;2022-09-09T14:50:22;5.82;;;1.80;;
53652;SDS011;39553;52.954;5.932;2022-09-09T14:52:48;4.13;;;1.85;;
53652;SDS011;39553;52.954;5.932;2022-09-09T14:55:15;4.85;;;2.75;;
53652;SDS011;39553;52.954;5.932;2022-09-09T14:57:42;5.32;;;2.13;;
53652;SDS011;39553;52.954;5.932;2022-09-09T15:00:08;3.50;;;2.17;;
53652;SDS011;39553;52.954;5.932;2022-09-09T15:02:36;4.90;;;2.47;;
53652;SDS011;39553;52.954;5.932;2022-09-09T15:05:01;6.38;;;2.53;;
53652;SDS011;39553;52.954;5.932;2022-09-09T15:07:28;5.57;;;2.95;;
53652;SDS011;39553;52.954;5.932;2022-09-09T15:09:54;4.85;;;2.78;;
53652;SDS011;39553;52.954;5.932;2022-09-09T15:12:20;6.75;;;2.97;;
53652;SDS011;39553;52.954;5.932;2022-09-09T15:14:46;8.55;;;3.45;;
53652;SDS011;39553;52.954;5.932;2022-09-09T15:17:13;5.47;;;3.15;;
53652;SDS011;39553;52.954;5.932;2022-09-09T15:19:39;6.75;;;3.55;;
53652;SDS011;39553;52.954;5.932;2022-09-09T15:22:05;6.57;;;3.42;;
53652;SDS011;39553;52.954;5.932;2022-09-09T15:24:32;5.82;;;3.33;;
53652;SDS011;39553;52.954;5.932;2022-09-09T15:26:58;9.43;;;3.38;;
53652;SDS011;39553;52.954;5.932;2022-09-09T15:29:24;5.63;;;3.72;;
53652;SDS011;39553;52.954;5.932;2022-09-09T15:31:50;5.47;;;3.50;;
53652;SDS011;39553;52.954;5.932;2022-09-09T15:34:16;5.65;;;3.10;;
53652;SDS011;39553;52.954;5.932;2022-09-09T15:36:43;7.35;;;3.17;;
53652;SDS011;39553;52.954;5.932;2022-09-09T15:39:14;7.05;;;3.05;;
53652;SDS011;39553;52.954;5.932;2022-09-09T15:41:42;4.65;;;2.72;;
53652;SDS011;39553;52.954;5.932;2022-09-09T15:44:09;6.18;;;3.28;;
53652;SDS011;39553;52.954;5.932;2022-09-09T15:46:41;5.32;;;2.85;;
53652;SDS011;39553;52.954;5.932;2022-09-09T15:49:12;8.10;;;3.03;;
53652;SDS011;39553;52.954;5.932;2022-09-09T15:51:51;5.28;;;3.35;;
53652;SDS011;39553;52.954;5.932;2022-09-09T15:54:19;6.15;;;3.63;;
53652;SDS011;39553;52.954;5.932;2022-09-09T15:56:49;4.03;;;3.15;;
53652;SDS011;39553;52.954;5.932;2022-09-09T15:59:23;4.72;;;3.22;;
53652;SDS011;39553;52.954;5.932;2022-09-09T16:01:49;6.50;;;3.15;;
53652;SDS011;39553;52.954;5.932;2022-09-09T16:04:18;6.10;;;3.53;;
53652;SDS011;39553;52.954;5.932;2022-09-09T16:06:51;5.50;;;2.70;;
53652;SDS011;39553;52.954;5.932;2022-09-09T16:09:22;5.30;;;3.03;;
53652;SDS011;39553;52.954;5.932;2022-09-09T16:11:48;5.55;;;2.92;;
53652;SDS011;39553;52.954;5.932;2022-09-09T16:14:14;6.40;;;3.40;;
53652;SDS011;39553;52.954;5.932;2022-09-09T16:16:41;6.60;;;3.13;;
53652;SDS011;39553;52.954;5.932;2022-09-09T16:19:08;7.68;;;3.53;;
53652;SDS011;39553;52.954;5.932;2022-09-09T16:21:38;5.45;;;2.90;;
53652;SDS011;39553;52.954;5.932;2022-09-09T16:24:06;4.80;;;3.00;;
53652;SDS011;39553;52.954;5.932;2022-09-09T16:26:34;3.45;;;2.58;;
53652;SDS011;39553;52.954;5.932;2022-09-09T16:29:03;3.92;;;2.75;;
53652;SDS011;39553;52.954;5.932;2022-09-09T16:31:30;3.97;;;3.15;;
53652;SDS011;39553;52.954;5.932;2022-09-09T16:33:57;6.63;;;3.50;;
53652;SDS011;39553;52.954;5.932;2022-09-09T16:36:24;7.18;;;3.25;;
53652;SDS011;39553;52.954;5.932;2022-09-09T16:38:56;5.18;;;3.30;;
53652;SDS011;39553;52.954;5.932;2022-09-09T16:41:23;4.70;;;2.95;;
53652;SDS011;39553;52.954;5.932;2022-09-09T16:43:53;5.78;;;3.25;;
53652;SDS011;39553;52.954;5.932;2022-09-09T16:46:24;4.72;;;3.00;;
53652;SDS011;39553;52.954;5.932;2022-09-09T16:48:52;8.73;;;3.50;;
53652;SDS011;39553;52.954;5.932;2022-09-09T16:51:20;5.38;;;2.90;;
53652;SDS011;39553;52.954;5.932;2022-09-09T16:53:50;5.72;;;3.17;;
53652;SDS011;39553;52.954;5.932;2022-09-09T16:56:18;6.82;;;3.17;;
53652;SDS011;39553;52.954;5.932;2022-09-09T16:58:53;5.18;;;3.05;;
53652;SDS011;39553;52.954;5.932;2022-09-09T17:01:27;4.28;;;2.58;;
53652;SDS011;39553;52.954;5.932;2022-09-09T17:03:54;4.32;;;2.63;;
53652;SDS011;39553;52.954;5.932;2022-09-09T17:06:23;6.95;;;3.33;;
53652;SDS011;39553;52.954;5.932;2022-09-09T17:08:53;5.50;;;3.30;;
53652;SDS011;39553;52.954;5.932;2022-09-09T17:11:19;3.47;;;2.60;;
53652;SDS011;39553;52.954;5.932;2022-09-09T17:13:46;10.45;;;3.50;;
53652;SDS011;39553;52.954;5.932;2022-09-09T17:16:12;4.97;;;2.58;;
53652;SDS011;39553;52.954;5.932;2022-09-09T17:18:39;6.55;;;2.80;;
53652;SDS011;39553;52.954;5.932;2022-09-09T17:21:06;5.15;;;2.97;;
53652;SDS011;39553;52.954;5.932;2022-09-09T17:23:34;7.63;;;3.38;;
53652;SDS011;39553;52.954;5.932;2022-09-09T17:26:04;7.60;;;3.38;;
53652;SDS011;39553;52.954;5.932;2022-09-09T17:28:33;6.93;;;2.75;;
53652;SDS011;39553;52.954;5.932;2022-09-09T17:31:00;4.95;;;2.60;;
53652;SDS011;39553;52.954;5.932;2022-09-09T17:33:28;6.35;;;3.03;;
53652;SDS011;39553;52.954;5.932;2022-09-09T17:35:57;5.15;;;2.70;;
53652;SDS011;39553;52.954;5.932;2022-09-09T17:38:24;3.42;;;2.58;;
53652;SDS011;39553;52.954;5.932;2022-09-09T17:41:10;6.85;;;2.80;;
53652;SDS011;39553;52.954;5.932;2022-09-09T17:43:35;7.72;;;2.40;;
53652;SDS011;39553;52.954;5.932;2022-09-09T17:46:09;7.32;;;2.70;;
53652;SDS011;39553;52.954;5.932;2022-09-09T17:48:39;5.07;;;2.63;;
53652;SDS011;39553;52.954;5.932;2022-09-09T17:51:07;4.07;;;2.40;;